sensor_id;sensor_type;location;lat;lon;timestamp;P1;durP1;ratioP1;P2;durP2;ratioP2
7647;SDS011;3866;48.020;11.720;2023-02-28T00:00:31;4.33;;;3.77;;
7647;SDS011;3866;48.020;11.720;2023-02-28T00:02:58;3.90;;;3.50;;
7647;SDS011;3866;48.020;11.720;2023-02-28T00:05:26;6.17;;;4.30;;
7647;SDS011;3866;48.020;11.720;2023-02-28T00:07:54;4.07;;;3.53;;
7647;SDS011;3866;48.020;11.720;2023-02-28T00:10:23;5.13;;;3.80;;
7647;SDS011;3866;48.020;11.720;2023-02-28T00:12:52;4.17;;;3.77;;
7647;SDS011;3866;48.020;11.720;2023-02-28T00:15:21;4.40;;;3.80;;
7647;SDS011;3866;48.020;11.720;2023-02-28T00:17:50;4.90;;;3.93;;
7647;SDS011;3866;48.020;11.720;2023-02-28T00:20:18;4.37;;;3.70;;
7647;SDS011;3866;48.020;11.720;2023-02-28T00:22:46;6.00;;;3.80;;
7647;SDS011;3866;48.020;11.720;2023-02-28T00:25:14;5.57;;;4.43;;
7647;SDS011;3866;48.020;11.720;2023-02-28T00:27:43;6.47;;;4.37;;
7647;SDS011;3866;48.020;11.720;2023-02-28T00:30:12;8.03;;;4.00;;
7647;SDS011;3866;48.020;11.720;2023-02-28T00:32:40;3.83;;;3.53;;
7647;SDS011;3866;48.020;11.720;2023-02-28T00:35:09;3.77;;;3.37;;
7647;SDS011;3866;48.020;11.720;2023-02-28T00:37:36;4.93;;;3.20;;
7647;SDS011;3866;48.020;11.720;2023-02-28T00:40:04;6.17;;;4.07;;
7647;SDS011;3866;48.020;11.720;2023-02-28T00:42:33;5.73;;;3.57;;
7647;SDS011;3866;48.020;11.720;2023-02-28T00:45:00;3.40;;;3.00;;
7647;SDS011;3866;48.020;11.720;2023-02-28T00:47:28;5.20;;;3.50;;
7647;SDS011;3866;48.020;11.720;2023-02-28T00:49:55;6.83;;;4.23;;
7647;SDS011;3866;48.020;11.720;2023-02-28T00:52:23;4.33;;;3.90;;
7647;SDS011;3866;48.020;11.720;2023-02-28T00:54:50;4.83;;;3.87;;
7647;SDS011;3866;48.020;11.720;2023-02-28T00:57:17;5.27;;;3.90;;
7647;SDS011;3866;48.020;11.720;2023-02-28T00:59:44;4.90;;;3.90;;
7647;SDS011;3866;48.020;11.720;2023-02-28T01:02:11;5.00;;;4.13;;
7647;SDS011;3866;48.020;11.720;2023-02-28T01:04:38;4.23;;;3.80;;
7647;SDS011;3866;48.020;11.720;2023-02-28T01:07:05;4.93;;;4.00;;
7647;SDS011;3866;48.020;11.720;2023-02-28T01:09:33;5.90;;;3.80;;
7647;SDS011;3866;48.020;11.720;2023-02-28T01:12:00;3.93;;;3.47;;
7647;SDS011;3866;48.020;11.720;2023-02-28T01:14:27;5.37;;;3.83;;
7647;SDS011;3866;48.020;11.720;2023-02-28T01:16:54;5.33;;;3.97;;
7647;SDS011;3866;48.020;11.720;2023-02-28T01:19:21;4.67;;;3.60;;
7647;SDS011;3866;48.020;11.720;2023-02-28T01:21:47;4.63;;;3.80;;
7647;SDS011;3866;48.020;11.720;2023-02-28T01:24:14;3.83;;;3.50;;
7647;SDS011;3866;48.020;11.720;2023-02-28T01:26:43;4.50;;;4.07;;
7647;SDS011;3866;48.020;11.720;2023-02-28T01:29:09;5.73;;;4.07;;
7647;SDS011;3866;48.020;11.720;2023-02-28T01:31:36;5.50;;;4.30;;
7647;SDS011;3866;48.020;11.720;2023-02-28T01:34:04;4.33;;;3.93;;
7647;SDS011;3866;48.020;11.720;2023-02-28T01:36:30;4.30;;;3.90;;
7647;SDS011;3866;48.020;11.720;2023-02-28T01:38:57;5.00;;;3.90;;
7647;SDS011;3866;48.020;11.720;2023-02-28T01:41:25;4.63;;;3.97;;
7647;SDS011;3866;48.020;11.720;2023-02-28T01:43:55;5.07;;;4.50;;
7647;SDS011;3866;48.020;11.720;2023-02-28T01:46:24;4.60;;;4.20;;
7647;SDS011;3866;48.020;11.720;2023-02-28T01:48:52;4.03;;;3.67;;
7647;SDS011;3866;48.020;11.720;2023-02-28T01:51:24;4.47;;;4.07;;
7647;SDS011;3866;48.020;11.720;2023-02-28T01:53:56;6.87;;;4.70;;
7647;SDS011;3866;48.020;11.720;2023-02-28T01:56:28;4.17;;;3.73;;
7647;SDS011;3866;48.020;11.720;2023-02-28T01:59:00;5.97;;;4.00;;
7647;SDS011;3866;48.020;11.720;2023-02-28T02:01:27;5.70;;;4.60;;
7647;SDS011;3866;48.020;11.720;2023-02-28T02:03:57;5.00;;;4.13;;
7647;SDS011;3866;48.020;11.720;2023-02-28T02:06:28;7.17;;;4.30;;
7647;SDS011;3866;48.020;11.720;2023-02-28T02:09:02;5.17;;;4.33;;
7647;SDS011;3866;48.020;11.720;2023-02-28T02:11:29;4.63;;;3.90;;
7647;SDS011;3866;48.020;11.720;2023-02-28T02:14:06;6.37;;;4.67;;
7647;SDS011;3866;48.020;11.720;2023-02-28T02:17:10;5.20;;;4.20;;
7647;SDS011;3866;48.020;11.720;2023-02-28T02:23:02;6.37;;;4.70;;
7647;SDS011;3866;48.020;11.720;2023-02-28T02:25:44;4.43;;;3.83;;
7647;SDS011;3866;48.020;11.720;2023-02-28T02:28:19;4.33;;;3.83;;
7647;SDS011;3866;48.020;11.720;2023-02-28T02:34:21;6.63;;;4.33;;
7647;SDS011;3866;48.020;11.720;2023-02-28T02:36:59;4.60;;;4.20;;
7647;SDS011;3866;48.020;11.720;2023-02-28T02:39:36;5.73;;;4.90;;
7647;SDS011;3866;48.020;11.720;2023-02-28T02:42:09;6.53;;;5.10;;
7647;SDS011;3866;48.020;11.720;2023-02-28T02:44:42;6.70;;;4.60;;
7647;SDS011;3866;48.020;11.720;2023-02-28T02:47:14;5.60;;;4.80;;
7647;SDS011;3866;48.020;11.720;2023-02-28T02:49:45;7.50;;;5.13;;
7647;SDS011;3866;48.020;11.720;2023-02-28T02:52:17;7.30;;;4.50;;
7647;SDS011;3866;48.020;11.720;2023-02-28T02:54:48;5.37;;;4.73;;
7647;SDS011;3866;48.020;11.720;2023-02-28T02:57:20;6.67;;;5.27;;
7647;SDS011;3866;48.020;11.720;2023-02-28T02:59:51;6.97;;;5.10;;
7647;SDS011;3866;48.020;11.720;2023-02-28T03:02:19;8.17;;;5.83;;
7647;SDS011;3866;48.020;11.720;2023-02-28T03:04:50;7.20;;;5.20;;
7647;SDS011;3866;48.020;11.720;2023-02-28T03:07:19;7.33;;;5.43;;
7647;SDS011;3866;48.020;11.720;2023-02-28T03:09:50;6.23;;;5.40;;
7647;SDS011;3866;48.020;11.720;2023-02-28T03:12:18;6.53;;;5.17;;
7647;SDS011;3866;48.020;11.720;2023-02-28T03:14:49;6.77;;;5.20;;
7647;SDS011;3866;48.020;11.720;2023-02-28T03:17:25;6.57;;;5.63;;
7647;SDS011;3866;48.020;11.720;2023-02-28T03:20:09;7.43;;;5.47;;
7647;SDS011;3866;48.020;11.720;2023-02-28T03:22:46;7.40;;;5.67;;
7647;SDS011;3866;48.020;11.720;2023-02-28T03:25:20;8.73;;;5.17;;
7647;SDS011;3866;48.020;11.720;2023-02-28T03:27:54;7.93;;;5.57;;
7647;SDS011;3866;48.020;11.720;2023-02-28T03:30:29;8.03;;;5.90;;
7647;SDS011;3866;48.020;11.720;2023-02-28T03:33:03;8.47;;;6.50;;
7647;SDS011;3866;48.020;11.720;2023-02-28T03:35:36;9.00;;;6.90;;
7647;SDS011;3866;48.020;11.720;2023-02-28T03:38:06;10.33;;;7.20;;
7647;SDS011;3866;48.020;11.720;2023-02-28T03:40:41;7.87;;;6.67;;
7647;SDS011;3866;48.020;11.720;2023-02-28T03:43:13;8.10;;;6.50;;
7647;SDS011;3866;48.020;11.720;2023-02-28T03:45:44;7.83;;;6.37;;
7647;SDS011;3866;48.020;11.720;2023-02-28T03:48:15;8.70;;;7.50;;
7647;SDS011;3866;48.020;11.720;2023-02-28T03:50:50;11.13;;;7.10;;
7647;SDS011;3866;48.020;11.720;2023-02-28T03:53:21;9.43;;;7.10;;
7647;SDS011;3866;48.020;11.720;2023-02-28T03:55:52;8.03;;;6.40;;
7647;SDS011;3866;48.020;11.720;2023-02-28T03:58:24;7.43;;;6.33;;
7647;SDS011;3866;48.020;11.720;2023-02-28T04:00:59;8.97;;;6.60;;
7647;SDS011;3866;48.020;11.720;2023-02-28T04:03:33;12.43;;;6.30;;
7647;SDS011;3866;48.020;11.720;2023-02-28T04:06:02;9.03;;;7.03;;
7647;SDS011;3866;48.020;11.720;2023-02-28T04:08:30;9.23;;;6.73;;
7647;SDS011;3866;48.020;11.720;2023-02-28T04:10:58;8.77;;;6.63;;
7647;SDS011;3866;48.020;11.720;2023-02-28T04:13:29;7.33;;;6.07;;
7647;SDS011;3866;48.020;11.720;2023-02-28T04:15:56;9.30;;;6.67;;
7647;SDS011;3866;48.020;11.720;2023-02-28T04:18:23;9.60;;;7.20;;
7647;SDS011;3866;48.020;11.720;2023-02-28T04:20:50;10.13;;;7.47;;
7647;SDS011;3866;48.020;11.720;2023-02-28T04:23:18;12.47;;;7.60;;
7647;SDS011;3866;48.020;11.720;2023-02-28T04:25:45;12.33;;;8.90;;
7647;SDS011;3866;48.020;11.720;2023-02-28T04:28:12;12.23;;;8.47;;
7647;SDS011;3866;48.020;11.720;2023-02-28T04:30:39;12.17;;;8.90;;
7647;SDS011;3866;48.020;11.720;2023-02-28T04:33:06;13.10;;;9.73;;
7647;SDS011;3866;48.020;11.720;2023-02-28T04:35:33;14.20;;;9.83;;
7647;SDS011;3866;48.020;11.720;2023-02-28T04:38:00;13.70;;;8.90;;
7647;SDS011;3866;48.020;11.720;2023-02-28T04:40:28;12.30;;;9.17;;
7647;SDS011;3866;48.020;11.720;2023-02-28T04:42:55;14.50;;;10.30;;
7647;SDS011;3866;48.020;11.720;2023-02-28T04:45:22;10.13;;;8.03;;
7647;SDS011;3866;48.020;11.720;2023-02-28T04:47:49;13.40;;;9.57;;
7647;SDS011;3866;48.020;11.720;2023-02-28T04:50:15;19.27;;;12.53;;
7647;SDS011;3866;48.020;11.720;2023-02-28T04:52:42;17.33;;;10.30;;
7647;SDS011;3866;48.020;11.720;2023-02-28T04:55:09;17.33;;;10.80;;
7647;SDS011;3866;48.020;11.720;2023-02-28T04:57:38;17.27;;;10.03;;
7647;SDS011;3866;48.020;11.720;2023-02-28T05:00:08;14.90;;;8.93;;
7647;SDS011;3866;48.020;11.720;2023-02-28T05:02:36;14.07;;;9.00;;
7647;SDS011;3866;48.020;11.720;2023-02-28T05:05:03;13.33;;;8.30;;
7647;SDS011;3866;48.020;11.720;2023-02-28T05:07:31;11.43;;;8.47;;
7647;SDS011;3866;48.020;11.720;2023-02-28T05:09:58;30.37;;;17.17;;
7647;SDS011;3866;48.020;11.720;2023-02-28T05:12:24;39.50;;;19.17;;
7647;SDS011;3866;48.020;11.720;2023-02-28T05:14:53;41.37;;;21.57;;
7647;SDS011;3866;48.020;11.720;2023-02-28T05:17:20;28.07;;;15.03;;
7647;SDS011;3866;48.020;11.720;2023-02-28T05:19:46;28.90;;;16.17;;
7647;SDS011;3866;48.020;11.720;2023-02-28T05:22:14;31.80;;;18.27;;
7647;SDS011;3866;48.020;11.720;2023-02-28T05:24:42;32.83;;;17.47;;
7647;SDS011;3866;48.020;11.720;2023-02-28T05:27:09;24.10;;;14.67;;
7647;SDS011;3866;48.020;11.720;2023-02-28T05:29:39;15.93;;;10.00;;
7647;SDS011;3866;48.020;11.720;2023-02-28T05:32:10;16.93;;;9.40;;
7647;SDS011;3866;48.020;11.720;2023-02-28T05:34:37;14.93;;;9.40;;
7647;SDS011;3866;48.020;11.720;2023-02-28T05:37:05;12.67;;;8.87;;
7647;SDS011;3866;48.020;11.720;2023-02-28T05:39:33;14.47;;;9.67;;
7647;SDS011;3866;48.020;11.720;2023-02-28T05:41:59;38.47;;;24.33;;
7647;SDS011;3866;48.020;11.720;2023-02-28T05:44:26;25.83;;;16.13;;
7647;SDS011;3866;48.020;11.720;2023-02-28T05:46:53;14.07;;;9.10;;
7647;SDS011;3866;48.020;11.720;2023-02-28T05:49:22;14.03;;;9.13;;
7647;SDS011;3866;48.020;11.720;2023-02-28T05:51:48;13.27;;;9.07;;
7647;SDS011;3866;48.020;11.720;2023-02-28T05:54:15;14.83;;;10.30;;
7647;SDS011;3866;48.020;11.720;2023-02-28T05:56:42;17.03;;;11.63;;
7647;SDS011;3866;48.020;11.720;2023-02-28T05:59:10;15.07;;;11.67;;
7647;SDS011;3866;48.020;11.720;2023-02-28T06:01:39;14.60;;;11.53;;
7647;SDS011;3866;48.020;11.720;2023-02-28T06:04:08;15.70;;;12.23;;
7647;SDS011;3866;48.020;11.720;2023-02-28T06:06:37;14.60;;;10.50;;
7647;SDS011;3866;48.020;11.720;2023-02-28T06:09:04;16.63;;;11.63;;
7647;SDS011;3866;48.020;11.720;2023-02-28T06:11:31;15.40;;;11.30;;
7647;SDS011;3866;48.020;11.720;2023-02-28T06:13:58;21.07;;;13.23;;
7647;SDS011;3866;48.020;11.720;2023-02-28T06:16:26;20.00;;;13.37;;
7647;SDS011;3866;48.020;11.720;2023-02-28T06:18:54;19.90;;;12.53;;
7647;SDS011;3866;48.020;11.720;2023-02-28T06:21:23;17.00;;;11.87;;
7647;SDS011;3866;48.020;11.720;2023-02-28T06:23:51;18.07;;;12.60;;
7647;SDS011;3866;48.020;11.720;2023-02-28T06:26:18;19.67;;;13.07;;
7647;SDS011;3866;48.020;11.720;2023-02-28T06:28:45;24.43;;;14.03;;
7647;SDS011;3866;48.020;11.720;2023-02-28T06:31:13;18.97;;;13.43;;
7647;SDS011;3866;48.020;11.720;2023-02-28T06:33:42;17.70;;;12.60;;
7647;SDS011;3866;48.020;11.720;2023-02-28T06:36:10;20.27;;;14.33;;
7647;SDS011;3866;48.020;11.720;2023-02-28T06:38:38;22.23;;;14.30;;
7647;SDS011;3866;48.020;11.720;2023-02-28T06:41:07;21.20;;;14.27;;
7647;SDS011;3866;48.020;11.720;2023-02-28T06:43:39;21.23;;;13.23;;
7647;SDS011;3866;48.020;11.720;2023-02-28T06:46:08;19.03;;;13.73;;
7647;SDS011;3866;48.020;11.720;2023-02-28T06:48:38;19.53;;;13.63;;
7647;SDS011;3866;48.020;11.720;2023-02-28T06:51:06;21.10;;;14.73;;
7647;SDS011;3866;48.020;11.720;2023-02-28T06:53:34;18.30;;;14.50;;
7647;SDS011;3866;48.020;11.720;2023-02-28T06:56:03;23.27;;;14.43;;
7647;SDS011;3866;48.020;11.720;2023-02-28T06:58:33;19.33;;;14.73;;
7647;SDS011;3866;48.020;11.720;2023-02-28T07:01:00;20.27;;;14.47;;
7647;SDS011;3866;48.020;11.720;2023-02-28T07:03:28;20.23;;;12.77;;
7647;SDS011;3866;48.020;11.720;2023-02-28T07:05:55;19.93;;;13.30;;
7647;SDS011;3866;48.020;11.720;2023-02-28T07:08:22;19.17;;;12.60;;
7647;SDS011;3866;48.020;11.720;2023-02-28T07:10:51;21.27;;;14.50;;
7647;SDS011;3866;48.020;11.720;2023-02-28T07:13:18;23.87;;;15.97;;
7647;SDS011;3866;48.020;11.720;2023-02-28T07:15:53;21.57;;;14.97;;
7647;SDS011;3866;48.020;11.720;2023-02-28T07:18:21;22.40;;;15.87;;
7647;SDS011;3866;48.020;11.720;2023-02-28T07:20:48;19.97;;;14.20;;
7647;SDS011;3866;48.020;11.720;2023-02-28T07:23:15;21.60;;;13.87;;
7647;SDS011;3866;48.020;11.720;2023-02-28T07:25:42;20.63;;;13.80;;
7647;SDS011;3866;48.020;11.720;2023-02-28T07:28:10;22.07;;;14.60;;
7647;SDS011;3866;48.020;11.720;2023-02-28T07:30:37;23.23;;;14.63;;
7647;SDS011;3866;48.020;11.720;2023-02-28T07:33:06;19.87;;;14.13;;
7647;SDS011;3866;48.020;11.720;2023-02-28T07:35:33;22.17;;;15.23;;
7647;SDS011;3866;48.020;11.720;2023-02-28T07:38:00;21.10;;;14.53;;
7647;SDS011;3866;48.020;11.720;2023-02-28T07:40:27;19.97;;;14.23;;
7647;SDS011;3866;48.020;11.720;2023-02-28T07:42:54;21.63;;;14.33;;
7647;SDS011;3866;48.020;11.720;2023-02-28T07:45:21;25.07;;;15.07;;
7647;SDS011;3866;48.020;11.720;2023-02-28T07:47:48;22.50;;;16.30;;
7647;SDS011;3866;48.020;11.720;2023-02-28T07:52:44;19.90;;;13.90;;
7647;SDS011;3866;48.020;11.720;2023-02-28T07:55:11;21.07;;;14.80;;
7647;SDS011;3866;48.020;11.720;2023-02-28T07:57:39;21.00;;;14.97;;
7647;SDS011;3866;48.020;11.720;2023-02-28T08:00:07;20.50;;;15.40;;
7647;SDS011;3866;48.020;11.720;2023-02-28T08:02:37;23.97;;;16.07;;
7647;SDS011;3866;48.020;11.720;2023-02-28T08:05:04;21.97;;;15.90;;
7647;SDS011;3866;48.020;11.720;2023-02-28T08:07:33;23.03;;;16.23;;
7647;SDS011;3866;48.020;11.720;2023-02-28T08:10:01;23.67;;;16.30;;
7647;SDS011;3866;48.020;11.720;2023-02-28T08:12:28;24.07;;;15.53;;
7647;SDS011;3866;48.020;11.720;2023-02-28T08:14:55;19.63;;;14.57;;
7647;SDS011;3866;48.020;11.720;2023-02-28T08:17:21;23.57;;;16.77;;
7647;SDS011;3866;48.020;11.720;2023-02-28T08:19:48;21.33;;;14.47;;
7647;SDS011;3866;48.020;11.720;2023-02-28T08:22:15;21.73;;;15.63;;
7647;SDS011;3866;48.020;11.720;2023-02-28T08:24:44;22.43;;;15.37;;
7647;SDS011;3866;48.020;11.720;2023-02-28T08:27:11;19.93;;;14.80;;
7647;SDS011;3866;48.020;11.720;2023-02-28T08:29:38;20.07;;;12.87;;
7647;SDS011;3866;48.020;11.720;2023-02-28T08:32:06;19.60;;;14.77;;
7647;SDS011;3866;48.020;11.720;2023-02-28T08:34:33;19.27;;;13.20;;
7647;SDS011;3866;48.020;11.720;2023-02-28T08:37:00;19.03;;;13.90;;
7647;SDS011;3866;48.020;11.720;2023-02-28T08:39:27;21.53;;;15.30;;
7647;SDS011;3866;48.020;11.720;2023-02-28T08:41:55;20.40;;;15.53;;
7647;SDS011;3866;48.020;11.720;2023-02-28T08:44:22;22.00;;;15.67;;
7647;SDS011;3866;48.020;11.720;2023-02-28T08:46:49;22.10;;;14.70;;
7647;SDS011;3866;48.020;11.720;2023-02-28T08:49:16;19.07;;;14.20;;
7647;SDS011;3866;48.020;11.720;2023-02-28T08:51:43;22.00;;;15.83;;
7647;SDS011;3866;48.020;11.720;2023-02-28T08:54:10;19.83;;;14.00;;
7647;SDS011;3866;48.020;11.720;2023-02-28T08:56:38;18.10;;;14.13;;
7647;SDS011;3866;48.020;11.720;2023-02-28T08:59:08;20.17;;;14.80;;
7647;SDS011;3866;48.020;11.720;2023-02-28T09:01:35;20.27;;;14.70;;
7647;SDS011;3866;48.020;11.720;2023-02-28T09:04:02;21.10;;;14.87;;
7647;SDS011;3866;48.020;11.720;2023-02-28T09:06:32;19.33;;;14.33;;
7647;SDS011;3866;48.020;11.720;2023-02-28T09:08:59;26.87;;;19.03;;
7647;SDS011;3866;48.020;11.720;2023-02-28T09:11:26;21.63;;;15.10;;
7647;SDS011;3866;48.020;11.720;2023-02-28T09:13:54;21.20;;;15.33;;
7647;SDS011;3866;48.020;11.720;2023-02-28T09:16:23;23.10;;;14.10;;
7647;SDS011;3866;48.020;11.720;2023-02-28T09:18:53;21.53;;;14.33;;
7647;SDS011;3866;48.020;11.720;2023-02-28T09:21:19;20.23;;;15.27;;
7647;SDS011;3866;48.020;11.720;2023-02-28T09:23:47;21.03;;;15.43;;
7647;SDS011;3866;48.020;11.720;2023-02-28T09:26:16;21.50;;;15.17;;
7647;SDS011;3866;48.020;11.720;2023-02-28T09:28:44;19.27;;;13.53;;
7647;SDS011;3866;48.020;11.720;2023-02-28T09:31:11;19.70;;;14.83;;
7647;SDS011;3866;48.020;11.720;2023-02-28T09:33:41;20.50;;;14.47;;
7647;SDS011;3866;48.020;11.720;2023-02-28T09:36:08;20.67;;;13.93;;
7647;SDS011;3866;48.020;11.720;2023-02-28T09:38:35;19.90;;;14.23;;
7647;SDS011;3866;48.020;11.720;2023-02-28T09:41:02;20.00;;;14.63;;
7647;SDS011;3866;48.020;11.720;2023-02-28T09:43:35;21.50;;;15.30;;
7647;SDS011;3866;48.020;11.720;2023-02-28T09:46:06;19.87;;;15.07;;
7647;SDS011;3866;48.020;11.720;2023-02-28T09:48:43;22.77;;;16.13;;
7647;SDS011;3866;48.020;11.720;2023-02-28T09:51:14;20.77;;;15.57;;
7647;SDS011;3866;48.020;11.720;2023-02-28T09:53:54;25.43;;;16.60;;
7647;SDS011;3866;48.020;11.720;2023-02-28T09:56:21;23.27;;;17.63;;
7647;SDS011;3866;48.020;11.720;2023-02-28T09:58:53;23.40;;;17.73;;
7647;SDS011;3866;48.020;11.720;2023-02-28T10:01:24;20.47;;;14.50;;
7647;SDS011;3866;48.020;11.720;2023-02-28T10:03:59;21.63;;;16.47;;
7647;SDS011;3866;48.020;11.720;2023-02-28T10:06:32;20.57;;;14.27;;
7647;SDS011;3866;48.020;11.720;2023-02-28T10:09:07;21.37;;;15.67;;
7647;SDS011;3866;48.020;11.720;2023-02-28T10:11:38;20.93;;;14.90;;
7647;SDS011;3866;48.020;11.720;2023-02-28T10:14:10;23.93;;;16.10;;
7647;SDS011;3866;48.020;11.720;2023-02-28T10:16:42;21.27;;;15.10;;
7647;SDS011;3866;48.020;11.720;2023-02-28T10:19:19;19.33;;;14.63;;
7647;SDS011;3866;48.020;11.720;2023-02-28T10:21:52;23.30;;;15.07;;
7647;SDS011;3866;48.020;11.720;2023-02-28T10:24:28;21.87;;;17.00;;
7647;SDS011;3866;48.020;11.720;2023-02-28T10:26:58;20.20;;;14.03;;
7647;SDS011;3866;48.020;11.720;2023-02-28T10:29:27;21.27;;;14.93;;
7647;SDS011;3866;48.020;11.720;2023-02-28T10:31:58;19.30;;;14.53;;
7647;SDS011;3866;48.020;11.720;2023-02-28T10:34:29;21.00;;;14.00;;
7647;SDS011;3866;48.020;11.720;2023-02-28T10:36:56;23.03;;;15.70;;
7647;SDS011;3866;48.020;11.720;2023-02-28T10:39:40;21.10;;;15.13;;
7647;SDS011;3866;48.020;11.720;2023-02-28T10:45:05;23.23;;;15.33;;
7647;SDS011;3866;48.020;11.720;2023-02-28T10:47:38;23.43;;;15.73;;
7647;SDS011;3866;48.020;11.720;2023-02-28T10:50:30;22.20;;;16.23;;
7647;SDS011;3866;48.020;11.720;2023-02-28T10:53:15;22.13;;;16.47;;
7647;SDS011;3866;48.020;11.720;2023-02-28T10:55:56;24.73;;;16.23;;
7647;SDS011;3866;48.020;11.720;2023-02-28T10:58:25;25.37;;;17.63;;
7647;SDS011;3866;48.020;11.720;2023-02-28T11:00:54;22.83;;;15.80;;
7647;SDS011;3866;48.020;11.720;2023-02-28T11:03:31;23.80;;;15.77;;
7647;SDS011;3866;48.020;11.720;2023-02-28T11:06:05;27.10;;;15.60;;
7647;SDS011;3866;48.020;11.720;2023-02-28T11:08:34;20.50;;;15.30;;
7647;SDS011;3866;48.020;11.720;2023-02-28T11:11:09;20.67;;;15.27;;
7647;SDS011;3866;48.020;11.720;2023-02-28T11:13:36;22.20;;;15.37;;
7647;SDS011;3866;48.020;11.720;2023-02-28T11:16:04;22.30;;;16.13;;
7647;SDS011;3866;48.020;11.720;2023-02-28T11:18:36;23.17;;;16.17;;
7647;SDS011;3866;48.020;11.720;2023-02-28T11:21:08;19.80;;;14.93;;
7647;SDS011;3866;48.020;11.720;2023-02-28T11:23:39;21.87;;;15.93;;
7647;SDS011;3866;48.020;11.720;2023-02-28T11:26:07;20.93;;;16.00;;
7647;SDS011;3866;48.020;11.720;2023-02-28T11:28:36;22.83;;;16.77;;
7647;SDS011;3866;48.020;11.720;2023-02-28T11:31:06;24.30;;;16.03;;
7647;SDS011;3866;48.020;11.720;2023-02-28T11:33:45;20.97;;;15.57;;
7647;SDS011;3866;48.020;11.720;2023-02-28T11:36:18;22.13;;;15.40;;
7647;SDS011;3866;48.020;11.720;2023-02-28T11:38:50;23.60;;;16.27;;
7647;SDS011;3866;48.020;11.720;2023-02-28T11:41:25;20.17;;;14.83;;
7647;SDS011;3866;48.020;11.720;2023-02-28T11:44:05;18.77;;;13.83;;
7647;SDS011;3866;48.020;11.720;2023-02-28T11:46:50;20.57;;;14.03;;
7647;SDS011;3866;48.020;11.720;2023-02-28T11:49:23;20.40;;;15.13;;
7647;SDS011;3866;48.020;11.720;2023-02-28T11:51:59;18.10;;;14.53;;
7647;SDS011;3866;48.020;11.720;2023-02-28T11:54:41;21.60;;;15.83;;
7647;SDS011;3866;48.020;11.720;2023-02-28T11:57:30;20.40;;;15.13;;
7647;SDS011;3866;48.020;11.720;2023-02-28T12:00:08;21.23;;;14.47;;
7647;SDS011;3866;48.020;11.720;2023-02-28T12:02:55;21.33;;;14.93;;
7647;SDS011;3866;48.020;11.720;2023-02-28T12:05:31;26.77;;;16.77;;
7647;SDS011;3866;48.020;11.720;2023-02-28T12:08:09;22.33;;;16.57;;
7647;SDS011;3866;48.020;11.720;2023-02-28T12:10:53;20.43;;;15.70;;
7647;SDS011;3866;48.020;11.720;2023-02-28T12:13:33;20.70;;;15.47;;
7647;SDS011;3866;48.020;11.720;2023-02-28T12:19:04;19.80;;;15.13;;
7647;SDS011;3866;48.020;11.720;2023-02-28T12:21:46;19.97;;;15.00;;
7647;SDS011;3866;48.020;11.720;2023-02-28T12:24:31;19.60;;;13.63;;
7647;SDS011;3866;48.020;11.720;2023-02-28T12:27:07;20.23;;;14.63;;
7647;SDS011;3866;48.020;11.720;2023-02-28T12:29:39;26.27;;;14.63;;
7647;SDS011;3866;48.020;11.720;2023-02-28T12:32:15;28.00;;;16.03;;
7647;SDS011;3866;48.020;11.720;2023-02-28T12:34:47;19.00;;;14.00;;
7647;SDS011;3866;48.020;11.720;2023-02-28T12:37:17;16.37;;;12.57;;
7647;SDS011;3866;48.020;11.720;2023-02-28T12:39:50;20.20;;;13.97;;
7647;SDS011;3866;48.020;11.720;2023-02-28T12:42:24;19.00;;;14.03;;
7647;SDS011;3866;48.020;11.720;2023-02-28T12:44:55;16.57;;;13.70;;
7647;SDS011;3866;48.020;11.720;2023-02-28T12:47:25;19.73;;;13.80;;
7647;SDS011;3866;48.020;11.720;2023-02-28T12:49:52;23.20;;;14.73;;
7647;SDS011;3866;48.020;11.720;2023-02-28T12:52:24;23.47;;;15.73;;
7647;SDS011;3866;48.020;11.720;2023-02-28T12:55:05;22.27;;;13.90;;
7647;SDS011;3866;48.020;11.720;2023-02-28T12:57:38;23.97;;;14.03;;
7647;SDS011;3866;48.020;11.720;2023-02-28T13:00:10;18.83;;;14.07;;
7647;SDS011;3866;48.020;11.720;2023-02-28T13:03:00;22.77;;;15.23;;
7647;SDS011;3866;48.020;11.720;2023-02-28T13:06:01;18.07;;;13.90;;
7647;SDS011;3866;48.020;11.720;2023-02-28T13:11:40;24.67;;;15.63;;
7647;SDS011;3866;48.020;11.720;2023-02-28T13:14:18;23.90;;;15.40;;
7647;SDS011;3866;48.020;11.720;2023-02-28T13:16:54;20.90;;;15.60;;
7647;SDS011;3866;48.020;11.720;2023-02-28T13:19:28;23.27;;;15.37;;
7647;SDS011;3866;48.020;11.720;2023-02-28T13:21:57;18.07;;;14.00;;
7647;SDS011;3866;48.020;11.720;2023-02-28T13:24:38;24.23;;;14.93;;
7647;SDS011;3866;48.020;11.720;2023-02-28T13:33:26;19.73;;;13.77;;
7647;SDS011;3866;48.020;11.720;2023-02-28T13:36:06;18.50;;;13.20;;
7647;SDS011;3866;48.020;11.720;2023-02-28T13:38:49;20.90;;;13.47;;
7647;SDS011;3866;48.020;11.720;2023-02-28T13:44:23;16.17;;;13.57;;
7647;SDS011;3866;48.020;11.720;2023-02-28T13:49:54;16.80;;;13.57;;
7647;SDS011;3866;48.020;11.720;2023-02-28T13:52:42;22.77;;;15.17;;
7647;SDS011;3866;48.020;11.720;2023-02-28T13:55:19;18.93;;;15.03;;
7647;SDS011;3866;48.020;11.720;2023-02-28T13:58:04;19.30;;;14.43;;
7647;SDS011;3866;48.020;11.720;2023-02-28T14:00:47;21.33;;;15.37;;
7647;SDS011;3866;48.020;11.720;2023-02-28T14:03:36;22.73;;;13.57;;
7647;SDS011;3866;48.020;11.720;2023-02-28T14:06:17;18.83;;;13.27;;
7647;SDS011;3866;48.020;11.720;2023-02-28T14:08:52;17.77;;;13.27;;
7647;SDS011;3866;48.020;11.720;2023-02-28T14:11:24;17.53;;;14.07;;
7647;SDS011;3866;48.020;11.720;2023-02-28T14:13:53;16.47;;;13.90;;
7647;SDS011;3866;48.020;11.720;2023-02-28T14:16:22;17.03;;;14.00;;
7647;SDS011;3866;48.020;11.720;2023-02-28T14:18:54;16.70;;;13.07;;
7647;SDS011;3866;48.020;11.720;2023-02-28T14:21:25;17.63;;;14.07;;
7647;SDS011;3866;48.020;11.720;2023-02-28T14:24:10;18.37;;;14.07;;
7647;SDS011;3866;48.020;11.720;2023-02-28T14:27:03;16.30;;;13.47;;
7647;SDS011;3866;48.020;11.720;2023-02-28T14:29:55;18.23;;;13.27;;
7647;SDS011;3866;48.020;11.720;2023-02-28T14:32:43;21.07;;;15.53;;
7647;SDS011;3866;48.020;11.720;2023-02-28T14:35:27;16.47;;;14.00;;
7647;SDS011;3866;48.020;11.720;2023-02-28T14:38:11;16.50;;;13.90;;
7647;SDS011;3866;48.020;11.720;2023-02-28T14:40:43;20.13;;;13.87;;
7647;SDS011;3866;48.020;11.720;2023-02-28T14:43:18;15.80;;;14.10;;
7647;SDS011;3866;48.020;11.720;2023-02-28T14:45:49;18.07;;;13.80;;
7647;SDS011;3866;48.020;11.720;2023-02-28T14:48:19;19.60;;;14.40;;
7647;SDS011;3866;48.020;11.720;2023-02-28T14:50:51;18.87;;;14.50;;
7647;SDS011;3866;48.020;11.720;2023-02-28T14:53:20;18.93;;;14.60;;
7647;SDS011;3866;48.020;11.720;2023-02-28T14:55:49;16.27;;;14.03;;
7647;SDS011;3866;48.020;11.720;2023-02-28T14:58:22;16.23;;;14.13;;
7647;SDS011;3866;48.020;11.720;2023-02-28T15:00:51;18.33;;;14.13;;
7647;SDS011;3866;48.020;11.720;2023-02-28T15:03:22;22.47;;;15.17;;
7647;SDS011;3866;48.020;11.720;2023-02-28T15:05:51;20.50;;;14.60;;
7647;SDS011;3866;48.020;11.720;2023-02-28T15:08:19;30.47;;;14.77;;
7647;SDS011;3866;48.020;11.720;2023-02-28T15:10:50;15.93;;;13.63;;
7647;SDS011;3866;48.020;11.720;2023-02-28T15:13:20;19.80;;;14.57;;
7647;SDS011;3866;48.020;11.720;2023-02-28T15:15:49;17.67;;;14.07;;
7647;SDS011;3866;48.020;11.720;2023-02-28T15:18:26;18.80;;;13.57;;
7647;SDS011;3866;48.020;11.720;2023-02-28T15:21:03;18.73;;;14.73;;
7647;SDS011;3866;48.020;11.720;2023-02-28T15:23:33;18.80;;;16.43;;
7647;SDS011;3866;48.020;11.720;2023-02-28T15:26:02;18.93;;;14.73;;
7647;SDS011;3866;48.020;11.720;2023-02-28T15:28:30;17.93;;;15.00;;
7647;SDS011;3866;48.020;11.720;2023-02-28T15:30:58;24.53;;;15.83;;
7647;SDS011;3866;48.020;11.720;2023-02-28T15:33:28;18.43;;;14.67;;
7647;SDS011;3866;48.020;11.720;2023-02-28T15:36:05;16.37;;;14.40;;